createdAt,value
2023-02-11T00:00:30.849Z,88.90
2023-02-11T00:03:43.021Z,88.90
2023-02-11T00:06:45.122Z,88.50
2023-02-11T00:09:47.277Z,88.50
2023-02-11T00:12:49.357Z,88.30
2023-02-11T00:15:52.218Z,88.50
2023-02-11T00:18:54.397Z,88.50
2023-02-11T00:21:56.412Z,88.70
2023-02-11T00:24:58.414Z,88.90
2023-02-11T00:28:00.617Z,89.20
2023-02-11T00:31:03.110Z,89.70
2023-02-11T00:34:06.552Z,90.00
2023-02-11T00:37:08.596Z,90.10
2023-02-11T00:40:11.323Z,90.30
2023-02-11T00:43:13.570Z,90.40
2023-02-11T00:46:16.503Z,90.50
2023-02-11T00:49:18.818Z,90.60
2023-02-11T00:52:21.388Z,90.50
2023-02-11T00:55:23.401Z,90.70
2023-02-11T00:58:25.486Z,90.80
2023-02-11T01:01:27.778Z,90.80
2023-02-11T01:04:30.115Z,90.80
2023-02-11T01:07:33.317Z,90.70
2023-02-11T01:10:35.340Z,90.80
2023-02-11T01:13:37.477Z,90.80
2023-02-11T01:16:40.446Z,90.80
2023-02-11T01:19:43.789Z,90.90
2023-02-11T01:22:46.144Z,91.40
2023-02-11T01:25:48.933Z,91.50
2023-02-11T01:28:51.348Z,91.70
2023-02-11T01:31:53.609Z,91.70
2023-02-11T01:34:55.846Z,91.70
2023-02-11T01:37:57.880Z,91.80
2023-02-11T01:41:07.056Z,91.80
2023-02-11T01:44:44.440Z,91.90
2023-02-11T01:47:46.470Z,92.00
2023-02-11T01:50:53.197Z,92.00
2023-02-11T01:54:15.725Z,92.10
2023-02-11T01:57:22.305Z,92.10
2023-02-11T02:00:37.039Z,92.00
2023-02-11T02:03:43.778Z,92.00
2023-02-11T02:06:55.622Z,92.20
2023-02-11T02:10:05.964Z,92.10
2023-02-11T02:13:08.094Z,92.00
2023-02-11T02:16:15.760Z,91.90
2023-02-11T02:19:36.558Z,91.90
2023-02-11T02:23:18.583Z,91.90
2023-02-11T02:26:57.087Z,92.00
2023-02-11T02:30:53.665Z,92.00
2023-02-11T02:34:08.495Z,92.00
2023-02-11T02:37:21.136Z,91.90
2023-02-11T02:40:46.717Z,92.00
2023-02-11T02:43:50.643Z,91.80
2023-02-11T02:46:52.738Z,91.60
2023-02-11T02:49:54.811Z,91.50
2023-02-11T02:52:57.258Z,91.40
2023-02-11T02:56:35.115Z,91.30
2023-02-11T02:59:58.807Z,91.10
2023-02-11T03:03:28.612Z,91.00
2023-02-11T03:06:45.781Z,90.80
2023-02-11T03:10:11.089Z,90.80
2023-02-11T03:13:17.185Z,90.80
2023-02-11T03:16:26.430Z,90.90
2023-02-11T03:19:41.079Z,91.00
2023-02-11T03:22:57.051Z,91.10
2023-02-11T03:26:19.331Z,91.00
2023-02-11T03:29:36.747Z,91.10
2023-02-11T03:32:56.062Z,91.10
2023-02-11T03:36:07.080Z,91.40
2023-02-11T03:39:11.136Z,91.00
2023-02-11T03:42:15.460Z,91.20
2023-02-11T03:45:21.990Z,91.30
2023-02-11T03:48:29.693Z,91.20
2023-02-11T03:51:40.720Z,91.30
2023-02-11T03:55:05.055Z,91.50
2023-02-11T03:58:08.541Z,91.50
2023-02-11T04:01:10.641Z,91.40
2023-02-11T04:04:13.710Z,91.40
2023-02-11T04:07:15.698Z,91.40
2023-02-11T04:10:18.082Z,91.50
2023-02-11T04:13:20.176Z,91.50
2023-02-11T04:16:22.277Z,91.60
2023-02-11T04:19:24.397Z,91.50
2023-02-11T04:22:26.426Z,91.40
2023-02-11T04:25:28.452Z,91.40
2023-02-11T04:28:31.595Z,91.40
2023-02-11T04:31:33.796Z,91.20
2023-02-11T04:34:35.804Z,91.20
2023-02-11T04:37:37.948Z,91.20
2023-02-11T04:40:40.408Z,91.30
2023-02-11T04:43:44.168Z,91.40
2023-02-11T04:46:46.198Z,91.30
2023-02-11T04:49:48.212Z,91.30
2023-02-11T04:52:50.285Z,91.30
2023-02-11T04:55:52.756Z,91.20
2023-02-11T04:58:55.958Z,91.20
2023-02-11T05:01:58.010Z,91.10
2023-02-11T05:05:00.122Z,91.00
2023-02-11T05:08:02.138Z,90.90
2023-02-11T05:11:04.621Z,90.90
2023-02-11T05:14:07.298Z,90.90
2023-02-11T05:17:09.384Z,90.80
2023-02-11T05:20:11.600Z,90.80
2023-02-11T05:23:14.611Z,90.70
2023-02-11T05:26:16.971Z,90.50
2023-02-11T05:29:21.503Z,90.50
2023-02-11T05:32:23.541Z,90.50
2023-02-11T05:35:25.713Z,90.80
2023-02-11T05:38:28.212Z,90.30
2023-02-11T05:41:30.189Z,90.40
2023-02-11T05:44:32.211Z,90.40
2023-02-11T05:47:34.347Z,90.50
2023-02-11T05:50:36.392Z,90.50
2023-02-11T05:53:38.764Z,90.60
2023-02-11T05:56:42.564Z,90.50
2023-02-11T05:59:45.658Z,90.50
2023-02-11T06:02:47.763Z,90.60
2023-02-11T06:05:50.306Z,90.70
2023-02-11T06:08:52.510Z,90.60
2023-02-11T06:11:54.564Z,90.70
2023-02-11T06:14:56.646Z,90.60
2023-02-11T06:17:58.725Z,90.70
2023-02-11T06:21:00.847Z,90.60
2023-02-11T06:24:03.379Z,90.40
2023-02-11T06:27:05.751Z,90.40
2023-02-11T06:30:08.520Z,90.50
2023-02-11T06:33:10.606Z,90.70
2023-02-11T06:36:17.889Z,90.60
2023-02-11T06:39:19.909Z,90.60
2023-02-11T06:42:22.042Z,90.60
2023-02-11T06:45:25.049Z,90.60
2023-02-11T06:48:27.102Z,90.70
2023-02-11T06:51:29.313Z,90.60
2023-02-11T06:54:32.602Z,90.80
2023-02-11T06:57:34.659Z,90.90
2023-02-11T07:00:37.727Z,90.90
2023-02-11T07:03:43.278Z,90.90
2023-02-11T07:06:45.357Z,90.90
2023-02-11T07:09:47.388Z,90.80
2023-02-11T07:12:49.416Z,90.70
2023-02-11T07:15:51.755Z,90.60
2023-02-11T07:18:54.428Z,90.70
2023-02-11T07:21:56.732Z,90.70
2023-02-11T07:24:58.742Z,90.70
2023-02-11T07:28:00.892Z,90.70
2023-02-11T07:31:20.044Z,90.60
2023-02-11T07:34:22.409Z,90.60
2023-02-11T07:37:24.522Z,90.70
2023-02-11T07:40:26.601Z,90.80
2023-02-11T07:43:29.309Z,90.60
2023-02-11T07:46:31.711Z,90.60
2023-02-11T07:49:34.716Z,90.40
2023-02-11T07:52:36.907Z,90.40
2023-02-11T07:55:38.926Z,90.40
2023-02-11T07:58:43.917Z,90.30
2023-02-11T08:01:46.004Z,90.40
2023-02-11T08:04:48.048Z,90.30
2023-02-11T08:07:53.896Z,90.20
2023-02-11T08:10:55.968Z,90.10
2023-02-11T08:13:58.184Z,90.00
2023-02-11T08:17:01.567Z,89.70
2023-02-11T08:20:04.941Z,89.40
2023-02-11T08:23:10.074Z,88.30
2023-02-11T08:26:18.291Z,86.30
2023-02-11T08:29:20.288Z,84.10
2023-02-11T08:32:26.930Z,83.30
2023-02-11T08:35:29.071Z,83.60
2023-02-11T08:38:31.980Z,83.10
2023-02-11T08:41:34.889Z,83.00
2023-02-11T08:44:36.917Z,83.20
2023-02-11T08:47:39.821Z,83.30
2023-02-11T08:50:41.912Z,82.50
2023-02-11T08:53:44.373Z,81.30
2023-02-11T08:56:46.503Z,80.50
2023-02-11T08:59:48.700Z,79.60
2023-02-11T09:02:50.889Z,78.10
2023-02-11T09:05:57.045Z,77.50
2023-02-11T09:08:59.443Z,75.10
2023-02-11T09:12:02.045Z,74.70
2023-02-11T09:15:04.431Z,72.90
2023-02-11T09:18:06.582Z,70.50
2023-02-11T09:21:09.596Z,69.20
2023-02-11T09:24:12.484Z,67.50
2023-02-11T09:27:14.573Z,66.10
2023-02-11T09:30:16.579Z,66.00
2023-02-11T09:33:18.836Z,65.70
2023-02-11T09:36:23.896Z,67.70
2023-02-11T09:39:26.841Z,68.80
2023-02-11T09:43:04.305Z,71.60
2023-02-11T09:46:07.129Z,73.90
2023-02-11T09:49:19.945Z,75.70
2023-02-11T09:52:30.080Z,74.20
2023-02-11T09:55:39.996Z,71.50
2023-02-11T09:58:44.419Z,70.30
2023-02-11T10:02:15.392Z,68.30
2023-02-11T10:05:48.156Z,68.10
2023-02-11T10:09:02.196Z,68.80
2023-02-11T10:12:25.543Z,70.40
2023-02-11T10:15:55.492Z,71.40
2023-02-11T10:19:22.530Z,70.60
2023-02-11T10:22:40.624Z,71.70
2023-02-11T10:25:50.875Z,70.00
2023-02-11T10:28:56.100Z,70.80
2023-02-11T10:32:01.830Z,70.90
2023-02-11T10:35:15.429Z,70.30
2023-02-11T10:38:17.891Z,67.50
2023-02-11T10:41:37.523Z,67.10
2023-02-11T10:44:52.405Z,65.90
2023-02-11T10:47:55.359Z,66.90
2023-02-11T10:51:08.470Z,69.00
2023-02-11T10:54:19.563Z,71.40
2023-02-11T10:57:21.743Z,72.40
2023-02-11T11:00:34.224Z,71.90
2023-02-11T11:03:46.811Z,72.10
2023-02-11T11:06:50.718Z,73.30
2023-02-11T11:09:59.722Z,72.30
2023-02-11T11:13:01.777Z,70.70
2023-02-11T11:16:12.605Z,67.70
2023-02-11T11:19:21.530Z,66.50
2023-02-11T11:22:23.867Z,62.30
2023-02-11T11:25:30.626Z,59.80
2023-02-11T11:28:56.170Z,61.40
2023-02-11T11:32:05.436Z,62.50
2023-02-11T11:35:25.915Z,65.30
2023-02-11T11:38:30.427Z,66.40
2023-02-11T11:41:34.913Z,65.90
2023-02-11T11:44:37.745Z,65.90
2023-02-11T11:47:51.792Z,66.10
2023-02-11T11:51:01.523Z,69.00
2023-02-11T11:54:06.451Z,69.70
2023-02-11T11:57:18.699Z,71.00
2023-02-11T12:00:27.978Z,70.10
2023-02-11T12:03:46.532Z,69.50
2023-02-11T12:06:57.826Z,71.00
2023-02-11T12:10:14.618Z,70.90
2023-02-11T12:13:32.952Z,71.40
2023-02-11T12:16:49.811Z,71.60
2023-02-11T12:20:14.288Z,73.00
2023-02-11T12:23:50.273Z,71.70
2023-02-11T12:27:13.197Z,71.80
2023-02-11T12:30:34.028Z,72.10
2023-02-11T12:33:47.568Z,72.10
2023-02-11T12:37:15.765Z,72.30
2023-02-11T12:40:34.873Z,72.20
2023-02-11T12:43:43.677Z,72.20
2023-02-11T12:47:17.128Z,72.50
2023-02-11T12:50:19.511Z,73.40
2023-02-11T12:53:49.411Z,72.30
2023-02-11T12:56:59.397Z,71.90
2023-02-11T13:00:08.598Z,72.40
2023-02-11T13:03:23.833Z,72.90
2023-02-11T13:06:40.040Z,72.50
2023-02-11T13:09:48.871Z,72.30
2023-02-11T13:13:11.473Z,72.70
2023-02-11T13:16:25.688Z,72.80
2023-02-11T13:19:46.014Z,73.20
2023-02-11T13:23:01.783Z,72.70
2023-02-11T13:26:25.575Z,73.80
2023-02-11T13:29:51.133Z,72.70
2023-02-11T13:32:55.890Z,73.30
2023-02-11T13:35:57.913Z,73.20
2023-02-11T13:39:06.529Z,74.00
2023-02-11T13:42:16.548Z,73.50
2023-02-11T13:45:42.083Z,74.10
2023-02-11T13:48:53.245Z,73.80
2023-02-11T13:51:56.761Z,73.70
2023-02-11T13:55:15.027Z,73.80
2023-02-11T13:58:29.109Z,73.50
2023-02-11T14:02:07.682Z,73.50
2023-02-11T14:05:34.325Z,73.80
2023-02-11T14:08:55.301Z,74.70
2023-02-11T14:12:23.599Z,74.60
2023-02-11T14:15:27.585Z,74.40
2023-02-11T14:18:44.440Z,74.90
2023-02-11T14:21:47.377Z,75.30
2023-02-11T14:24:52.641Z,75.20
2023-02-11T14:28:04.897Z,75.50
2023-02-11T14:31:14.868Z,75.90
2023-02-11T14:34:29.005Z,75.60
2023-02-11T14:37:40.392Z,75.00
2023-02-11T14:40:51.762Z,75.00
2023-02-11T14:44:17.508Z,75.80
2023-02-11T14:47:21.133Z,76.20
2023-02-11T14:50:28.220Z,76.00
2023-02-11T14:53:33.067Z,75.50
2023-02-11T14:56:36.388Z,75.50
2023-02-11T14:59:39.368Z,75.40
2023-02-11T15:02:43.741Z,76.20
2023-02-11T15:05:45.918Z,76.00
2023-02-11T15:09:00.958Z,76.40
2023-02-11T15:12:03.949Z,76.10
2023-02-11T15:15:06.323Z,75.70
2023-02-11T15:18:09.752Z,76.30
2023-02-11T15:21:11.849Z,76.70
2023-02-11T15:24:31.791Z,76.70
2023-02-11T15:27:49.279Z,77.00
2023-02-11T15:31:03.435Z,77.00
2023-02-11T15:34:09.206Z,76.70
2023-02-11T15:37:29.888Z,76.70
2023-02-11T15:40:37.337Z,77.00
2023-02-11T15:43:48.043Z,76.80
2023-02-11T15:46:50.251Z,77.30
2023-02-11T15:49:52.514Z,77.30
2023-02-11T15:52:57.533Z,77.90
2023-02-11T15:56:42.284Z,77.50
2023-02-11T15:59:54.051Z,77.10
2023-02-11T16:02:56.492Z,77.60
2023-02-11T16:06:20.317Z,77.60
2023-02-11T16:09:33.147Z,77.20
2023-02-11T16:12:35.257Z,77.60
2023-02-11T16:15:52.571Z,78.20
2023-02-11T16:19:04.880Z,78.40
2023-02-11T16:22:11.728Z,77.60
2023-02-11T16:25:22.357Z,77.50
2023-02-11T16:28:24.729Z,78.30
2023-02-11T16:31:34.301Z,78.80
2023-02-11T16:34:37.247Z,78.50
2023-02-11T16:37:39.458Z,78.60
2023-02-11T16:40:42.330Z,78.50
2023-02-11T16:43:44.391Z,79.10
2023-02-11T16:46:47.775Z,79.50
2023-02-11T16:49:50.428Z,79.80
2023-02-11T16:52:54.429Z,79.60
2023-02-11T16:55:56.414Z,79.40
2023-02-11T16:58:58.786Z,79.00
2023-02-11T17:02:00.831Z,79.50
2023-02-11T17:05:05.784Z,79.90
2023-02-11T17:08:09.842Z,79.60
2023-02-11T17:11:16.859Z,80.00
2023-02-11T17:14:20.373Z,80.50
2023-02-11T17:17:29.014Z,80.70
2023-02-11T17:20:31.122Z,81.00
2023-02-11T17:23:33.166Z,81.30
2023-02-11T17:26:37.006Z,81.80
2023-02-11T17:29:41.139Z,82.10
2023-02-11T17:32:43.198Z,81.40
2023-02-11T17:35:45.759Z,81.70
2023-02-11T17:38:47.815Z,81.00
2023-02-11T17:41:50.904Z,81.30
2023-02-11T17:44:53.062Z,81.80
2023-02-11T17:47:55.228Z,82.10
2023-02-11T17:50:57.408Z,81.80
2023-02-11T17:54:01.765Z,82.10
2023-02-11T17:57:04.006Z,81.90
2023-02-11T18:00:07.858Z,81.50
2023-02-11T18:03:10.093Z,81.50
2023-02-11T18:06:12.812Z,81.10
2023-02-11T18:09:14.917Z,81.00
2023-02-11T18:12:25.136Z,81.30
2023-02-11T18:15:27.599Z,81.30
2023-02-11T18:18:29.890Z,81.40
2023-02-11T18:21:32.260Z,81.50
2023-02-11T18:24:34.343Z,81.50
2023-02-11T18:27:36.525Z,81.50
2023-02-11T18:30:38.662Z,81.90
2023-02-11T18:33:42.424Z,82.20
2023-02-11T18:36:44.805Z,82.70
2023-02-11T18:39:46.818Z,83.10
2023-02-11T18:42:48.989Z,83.40
2023-02-11T18:45:51.761Z,83.60
2023-02-11T18:48:56.269Z,83.50
2023-02-11T18:51:58.949Z,83.50
2023-02-11T18:55:01.038Z,83.10
2023-02-11T18:58:03.177Z,83.10
2023-02-11T19:01:17.741Z,83.20
2023-02-11T19:04:20.895Z,82.90
2023-02-11T19:07:23.049Z,83.00
2023-02-11T19:10:28.779Z,82.70
2023-02-11T19:13:31.099Z,82.80
2023-02-11T19:16:33.211Z,83.00
2023-02-11T19:19:36.732Z,83.30
2023-02-11T19:22:38.990Z,83.50
2023-02-11T19:25:48.024Z,83.90
2023-02-11T19:28:50.403Z,84.40
2023-02-11T19:31:53.201Z,84.70
2023-02-11T19:34:55.403Z,84.40
2023-02-11T19:37:57.408Z,85.00
2023-02-11T19:40:59.554Z,84.90
2023-02-11T19:44:02.654Z,85.00
2023-02-11T19:47:05.148Z,85.40
2023-02-11T19:50:08.071Z,85.20
2023-02-11T19:53:10.407Z,85.00
2023-02-11T19:56:14.239Z,85.10
2023-02-11T19:59:16.832Z,84.70
2023-02-11T20:02:18.893Z,84.90
2023-02-11T20:05:21.318Z,85.00
2023-02-11T20:08:23.307Z,85.40
2023-02-11T20:11:27.058Z,84.60
2023-02-11T20:14:29.056Z,84.70
2023-02-11T20:17:31.123Z,84.70
2023-02-11T20:20:33.376Z,84.80
2023-02-11T20:23:36.458Z,84.70
2023-02-11T20:26:41.780Z,84.70
2023-02-11T20:29:45.416Z,85.10
2023-02-11T20:32:47.578Z,85.20
2023-02-11T20:35:56.784Z,85.20
2023-02-11T20:39:00.622Z,85.10
2023-02-11T20:42:03.133Z,85.10
2023-02-11T20:45:05.957Z,84.70
2023-02-11T20:48:08.145Z,84.70
2023-02-11T20:51:16.491Z,84.30
2023-02-11T20:54:21.239Z,84.20
2023-02-11T20:57:23.507Z,84.40
2023-02-11T21:00:25.711Z,84.30
2023-02-11T21:03:28.112Z,84.10
2023-02-11T21:06:40.514Z,84.40
2023-02-11T21:09:42.742Z,84.20
2023-02-11T21:12:45.627Z,84.20
2023-02-11T21:15:55.944Z,84.10
2023-02-11T21:18:58.697Z,84.00
2023-02-11T21:22:01.866Z,84.40
2023-02-11T21:25:06.228Z,84.20
2023-02-11T21:28:09.528Z,85.00
2023-02-11T21:31:22.209Z,84.40
2023-02-11T21:34:24.711Z,84.30
2023-02-11T21:37:27.625Z,84.70
2023-02-11T21:40:30.084Z,84.70
2023-02-11T21:43:33.315Z,84.70
2023-02-11T21:46:35.633Z,84.60
2023-02-11T21:49:38.332Z,84.50
2023-02-11T21:52:40.716Z,84.60
2023-02-11T21:55:43.951Z,84.60
2023-02-11T21:58:46.891Z,84.70
2023-02-11T22:01:49.457Z,84.60
2023-02-11T22:04:51.971Z,84.50
2023-02-11T22:07:54.919Z,84.80
2023-02-11T22:11:03.568Z,85.10
2023-02-11T22:14:09.256Z,85.30
2023-02-11T22:17:13.541Z,85.50
2023-02-11T22:20:17.143Z,85.90
2023-02-11T22:23:19.528Z,86.10
2023-02-11T22:26:24.728Z,86.40
2023-02-11T22:29:27.257Z,86.50
2023-02-11T22:32:29.653Z,86.70
2023-02-11T22:35:34.695Z,86.70
2023-02-11T22:38:37.094Z,86.80
2023-02-11T22:41:41.159Z,86.90
2023-02-11T22:44:43.398Z,88.40
2023-02-11T22:47:45.806Z,88.30
2023-02-11T22:50:49.171Z,89.30
2023-02-11T22:53:53.518Z,89.30
2023-02-11T22:56:55.866Z,90.20
2023-02-11T22:59:58.089Z,89.70
2023-02-11T23:03:00.785Z,90.00
2023-02-11T23:06:04.066Z,89.80
2023-02-11T23:09:08.992Z,89.70
2023-02-11T23:12:12.087Z,89.40
2023-02-11T23:15:14.565Z,89.20
2023-02-11T23:18:16.750Z,88.90
2023-02-11T23:21:25.252Z,88.80
2023-02-11T23:24:27.676Z,88.80
2023-02-11T23:27:29.728Z,88.90
2023-02-11T23:30:31.748Z,88.90
2023-02-11T23:33:33.857Z,89.00
2023-02-11T23:36:36.626Z,88.90
2023-02-11T23:39:38.708Z,89.20
2023-02-11T23:42:42.064Z,90.00
2023-02-11T23:45:45.060Z,90.40
2023-02-11T23:48:47.607Z,90.70
2023-02-11T23:51:50.521Z,90.80
2023-02-11T23:54:52.550Z,91.10
2023-02-11T23:57:54.541Z,90.90
